sensor_id;sensor_type;location;lat;lon;timestamp;P1;durP1;ratioP1;P2;durP2;ratioP2
20393;SDS011;10356;50.544;9.642;2023-03-03T00:00:40;43.27;;;24.10;;
20393;SDS011;10356;50.544;9.642;2023-03-03T00:03:07;46.30;;;25.47;;
20393;SDS011;10356;50.544;9.642;2023-03-03T00:05:37;46.03;;;25.77;;
20393;SDS011;10356;50.544;9.642;2023-03-03T00:08:04;42.73;;;23.53;;
20393;SDS011;10356;50.544;9.642;2023-03-03T00:10:33;49.93;;;25.83;;
20393;SDS011;10356;50.544;9.642;2023-03-03T00:12:59;47.77;;;25.73;;
20393;SDS011;10356;50.544;9.642;2023-03-03T00:15:26;49.00;;;26.10;;
20393;SDS011;10356;50.544;9.642;2023-03-03T00:17:53;51.87;;;26.83;;
20393;SDS011;10356;50.544;9.642;2023-03-03T00:20:31;51.17;;;27.13;;
20393;SDS011;10356;50.544;9.642;2023-03-03T00:23:05;50.40;;;25.87;;
20393;SDS011;10356;50.544;9.642;2023-03-03T00:25:44;49.13;;;25.70;;
20393;SDS011;10356;50.544;9.642;2023-03-03T00:28:17;50.07;;;25.40;;
20393;SDS011;10356;50.544;9.642;2023-03-03T00:30:49;47.53;;;25.87;;
20393;SDS011;10356;50.544;9.642;2023-03-03T00:33:20;53.37;;;27.43;;
20393;SDS011;10356;50.544;9.642;2023-03-03T00:35:52;57.77;;;28.40;;
20393;SDS011;10356;50.544;9.642;2023-03-03T00:38:19;54.57;;;28.03;;
20393;SDS011;10356;50.544;9.642;2023-03-03T00:40:47;53.27;;;27.33;;
20393;SDS011;10356;50.544;9.642;2023-03-03T00:43:17;49.93;;;26.60;;
20393;SDS011;10356;50.544;9.642;2023-03-03T00:45:46;54.40;;;27.37;;
20393;SDS011;10356;50.544;9.642;2023-03-03T00:48:20;51.37;;;26.60;;
20393;SDS011;10356;50.544;9.642;2023-03-03T00:50:52;57.93;;;29.97;;
20393;SDS011;10356;50.544;9.642;2023-03-03T00:53:20;58.73;;;30.10;;
20393;SDS011;10356;50.544;9.642;2023-03-03T00:55:52;60.07;;;31.60;;
20393;SDS011;10356;50.544;9.642;2023-03-03T00:58:19;53.50;;;28.63;;
20393;SDS011;10356;50.544;9.642;2023-03-03T01:00:47;55.00;;;28.17;;
20393;SDS011;10356;50.544;9.642;2023-03-03T01:03:15;53.73;;;29.13;;
20393;SDS011;10356;50.544;9.642;2023-03-03T01:05:44;57.33;;;29.10;;
20393;SDS011;10356;50.544;9.642;2023-03-03T01:08:11;51.83;;;28.67;;
20393;SDS011;10356;50.544;9.642;2023-03-03T01:10:39;52.63;;;28.67;;
20393;SDS011;10356;50.544;9.642;2023-03-03T01:13:10;53.50;;;28.27;;
20393;SDS011;10356;50.544;9.642;2023-03-03T01:15:38;56.83;;;29.87;;
20393;SDS011;10356;50.544;9.642;2023-03-03T01:18:05;54.87;;;29.37;;
20393;SDS011;10356;50.544;9.642;2023-03-03T01:20:33;57.87;;;31.37;;
20393;SDS011;10356;50.544;9.642;2023-03-03T01:23:00;64.43;;;33.23;;
20393;SDS011;10356;50.544;9.642;2023-03-03T01:25:27;62.10;;;31.63;;
20393;SDS011;10356;50.544;9.642;2023-03-03T01:27:54;61.77;;;31.63;;
20393;SDS011;10356;50.544;9.642;2023-03-03T01:30:22;65.63;;;32.07;;
20393;SDS011;10356;50.544;9.642;2023-03-03T01:32:49;60.93;;;32.33;;
20393;SDS011;10356;50.544;9.642;2023-03-03T01:35:16;61.47;;;31.00;;
20393;SDS011;10356;50.544;9.642;2023-03-03T01:37:43;58.00;;;30.27;;
20393;SDS011;10356;50.544;9.642;2023-03-03T01:40:13;60.10;;;29.63;;
20393;SDS011;10356;50.544;9.642;2023-03-03T01:42:43;55.60;;;28.70;;
20393;SDS011;10356;50.544;9.642;2023-03-03T01:45:14;60.17;;;29.63;;
20393;SDS011;10356;50.544;9.642;2023-03-03T01:47:46;62.50;;;31.67;;
20393;SDS011;10356;50.544;9.642;2023-03-03T01:50:20;57.93;;;30.77;;
20393;SDS011;10356;50.544;9.642;2023-03-03T01:52:56;62.37;;;30.47;;
20393;SDS011;10356;50.544;9.642;2023-03-03T01:55:27;54.40;;;29.53;;
20393;SDS011;10356;50.544;9.642;2023-03-03T01:58:01;59.40;;;30.07;;
20393;SDS011;10356;50.544;9.642;2023-03-03T02:00:31;62.73;;;30.53;;
20393;SDS011;10356;50.544;9.642;2023-03-03T02:03:02;68.53;;;31.40;;
20393;SDS011;10356;50.544;9.642;2023-03-03T02:05:30;59.70;;;30.27;;
20393;SDS011;10356;50.544;9.642;2023-03-03T02:07:57;64.37;;;32.10;;
20393;SDS011;10356;50.544;9.642;2023-03-03T02:10:24;70.97;;;34.20;;
20393;SDS011;10356;50.544;9.642;2023-03-03T02:12:54;76.20;;;35.97;;
20393;SDS011;10356;50.544;9.642;2023-03-03T02:15:23;80.43;;;39.60;;
20393;SDS011;10356;50.544;9.642;2023-03-03T02:17:51;90.23;;;42.30;;
20393;SDS011;10356;50.544;9.642;2023-03-03T02:23:12;90.00;;;40.37;;
20393;SDS011;10356;50.544;9.642;2023-03-03T02:25:48;93.27;;;41.77;;
20393;SDS011;10356;50.544;9.642;2023-03-03T02:28:29;86.93;;;40.50;;
20393;SDS011;10356;50.544;9.642;2023-03-03T02:30:57;88.83;;;41.37;;
20393;SDS011;10356;50.544;9.642;2023-03-03T02:33:27;88.20;;;40.03;;
20393;SDS011;10356;50.544;9.642;2023-03-03T02:35:54;85.73;;;41.77;;
20393;SDS011;10356;50.544;9.642;2023-03-03T02:38:23;81.93;;;40.33;;
20393;SDS011;10356;50.544;9.642;2023-03-03T02:41:03;92.93;;;42.50;;
20393;SDS011;10356;50.544;9.642;2023-03-03T02:43:38;94.27;;;43.30;;
20393;SDS011;10356;50.544;9.642;2023-03-03T02:46:11;97.30;;;41.40;;
20393;SDS011;10356;50.544;9.642;2023-03-03T02:48:39;88.80;;;41.83;;
20393;SDS011;10356;50.544;9.642;2023-03-03T02:51:08;91.57;;;42.13;;
20393;SDS011;10356;50.544;9.642;2023-03-03T02:53:38;94.80;;;41.37;;
20393;SDS011;10356;50.544;9.642;2023-03-03T02:56:06;95.07;;;43.10;;
20393;SDS011;10356;50.544;9.642;2023-03-03T02:58:34;93.37;;;42.23;;
20393;SDS011;10356;50.544;9.642;2023-03-03T03:01:00;92.83;;;44.27;;
20393;SDS011;10356;50.544;9.642;2023-03-03T03:03:27;93.37;;;41.47;;
20393;SDS011;10356;50.544;9.642;2023-03-03T03:05:54;90.73;;;43.57;;
20393;SDS011;10356;50.544;9.642;2023-03-03T03:08:20;92.63;;;43.60;;
20393;SDS011;10356;50.544;9.642;2023-03-03T03:10:47;98.67;;;44.27;;
20393;SDS011;10356;50.544;9.642;2023-03-03T03:13:15;98.10;;;44.40;;
20393;SDS011;10356;50.544;9.642;2023-03-03T03:15:44;96.90;;;42.70;;
20393;SDS011;10356;50.544;9.642;2023-03-03T03:18:10;101.83;;;43.73;;
20393;SDS011;10356;50.544;9.642;2023-03-03T03:20:37;97.73;;;43.10;;
20393;SDS011;10356;50.544;9.642;2023-03-03T03:23:05;93.27;;;41.77;;
20393;SDS011;10356;50.544;9.642;2023-03-03T03:25:32;100.33;;;42.67;;
20393;SDS011;10356;50.544;9.642;2023-03-03T03:27:59;96.80;;;43.40;;
20393;SDS011;10356;50.544;9.642;2023-03-03T03:30:29;98.43;;;43.00;;
20393;SDS011;10356;50.544;9.642;2023-03-03T03:32:56;89.40;;;41.13;;
20393;SDS011;10356;50.544;9.642;2023-03-03T03:35:24;99.70;;;41.77;;
20393;SDS011;10356;50.544;9.642;2023-03-03T03:37:51;96.00;;;41.90;;
20393;SDS011;10356;50.544;9.642;2023-03-03T03:40:18;94.37;;;41.70;;
20393;SDS011;10356;50.544;9.642;2023-03-03T03:42:44;89.00;;;41.57;;
20393;SDS011;10356;50.544;9.642;2023-03-03T03:45:11;93.80;;;40.73;;
20393;SDS011;10356;50.544;9.642;2023-03-03T03:47:40;93.37;;;41.03;;
20393;SDS011;10356;50.544;9.642;2023-03-03T03:50:07;103.13;;;43.57;;
20393;SDS011;10356;50.544;9.642;2023-03-03T03:52:35;91.63;;;41.90;;
20393;SDS011;10356;50.544;9.642;2023-03-03T03:55:01;94.97;;;42.17;;
20393;SDS011;10356;50.544;9.642;2023-03-03T03:57:29;97.17;;;42.37;;
20393;SDS011;10356;50.544;9.642;2023-03-03T03:59:55;99.07;;;42.27;;
20393;SDS011;10356;50.544;9.642;2023-03-03T04:02:22;108.57;;;44.40;;
20393;SDS011;10356;50.544;9.642;2023-03-03T04:04:50;113.80;;;44.43;;
20393;SDS011;10356;50.544;9.642;2023-03-03T04:07:17;109.00;;;45.03;;
20393;SDS011;10356;50.544;9.642;2023-03-03T04:09:44;105.77;;;43.73;;
20393;SDS011;10356;50.544;9.642;2023-03-03T04:12:10;107.53;;;43.23;;
20393;SDS011;10356;50.544;9.642;2023-03-03T04:14:37;101.03;;;42.97;;
20393;SDS011;10356;50.544;9.642;2023-03-03T04:17:04;105.43;;;44.60;;
20393;SDS011;10356;50.544;9.642;2023-03-03T04:19:30;105.20;;;45.13;;
20393;SDS011;10356;50.544;9.642;2023-03-03T04:21:58;102.03;;;42.40;;
20393;SDS011;10356;50.544;9.642;2023-03-03T04:24:25;109.30;;;44.03;;
20393;SDS011;10356;50.544;9.642;2023-03-03T04:26:51;109.07;;;43.77;;
20393;SDS011;10356;50.544;9.642;2023-03-03T04:29:18;108.60;;;41.13;;
20393;SDS011;10356;50.544;9.642;2023-03-03T04:31:45;95.37;;;42.90;;
20393;SDS011;10356;50.544;9.642;2023-03-03T04:34:11;100.07;;;42.53;;
20393;SDS011;10356;50.544;9.642;2023-03-03T04:36:38;94.63;;;40.83;;
20393;SDS011;10356;50.544;9.642;2023-03-03T04:39:06;95.13;;;42.10;;
20393;SDS011;10356;50.544;9.642;2023-03-03T04:41:32;101.47;;;41.77;;
20393;SDS011;10356;50.544;9.642;2023-03-03T04:43:59;105.57;;;42.47;;
20393;SDS011;10356;50.544;9.642;2023-03-03T04:46:25;103.27;;;43.40;;
20393;SDS011;10356;50.544;9.642;2023-03-03T04:48:52;99.97;;;42.27;;
20393;SDS011;10356;50.544;9.642;2023-03-03T04:51:19;92.27;;;40.30;;
20393;SDS011;10356;50.544;9.642;2023-03-03T04:53:46;92.77;;;40.70;;
20393;SDS011;10356;50.544;9.642;2023-03-03T04:56:14;89.07;;;39.30;;
20393;SDS011;10356;50.544;9.642;2023-03-03T04:58:40;97.37;;;42.73;;
20393;SDS011;10356;50.544;9.642;2023-03-03T05:01:09;97.33;;;40.97;;
20393;SDS011;10356;50.544;9.642;2023-03-03T05:03:37;97.20;;;41.53;;
20393;SDS011;10356;50.544;9.642;2023-03-03T05:06:04;95.40;;;40.03;;
20393;SDS011;10356;50.544;9.642;2023-03-03T05:08:31;101.30;;;40.77;;
20393;SDS011;10356;50.544;9.642;2023-03-03T05:10:58;103.67;;;42.27;;
20393;SDS011;10356;50.544;9.642;2023-03-03T05:13:27;102.47;;;42.70;;
20393;SDS011;10356;50.544;9.642;2023-03-03T05:15:54;107.47;;;43.93;;
20393;SDS011;10356;50.544;9.642;2023-03-03T05:18:21;102.20;;;42.23;;
20393;SDS011;10356;50.544;9.642;2023-03-03T05:20:49;106.83;;;42.57;;
20393;SDS011;10356;50.544;9.642;2023-03-03T05:23:16;109.20;;;46.07;;
20393;SDS011;10356;50.544;9.642;2023-03-03T05:25:46;109.37;;;44.67;;
20393;SDS011;10356;50.544;9.642;2023-03-03T05:28:13;111.27;;;42.30;;
20393;SDS011;10356;50.544;9.642;2023-03-03T05:30:41;101.07;;;42.57;;
20393;SDS011;10356;50.544;9.642;2023-03-03T05:33:09;100.33;;;41.33;;
20393;SDS011;10356;50.544;9.642;2023-03-03T05:35:38;102.80;;;40.77;;
20393;SDS011;10356;50.544;9.642;2023-03-03T05:38:04;106.90;;;42.17;;
20393;SDS011;10356;50.544;9.642;2023-03-03T05:40:31;106.43;;;42.23;;
20393;SDS011;10356;50.544;9.642;2023-03-03T05:42:58;107.37;;;42.20;;
20393;SDS011;10356;50.544;9.642;2023-03-03T05:45:24;129.87;;;54.80;;
20393;SDS011;10356;50.544;9.642;2023-03-03T05:47:52;112.27;;;47.07;;
20393;SDS011;10356;50.544;9.642;2023-03-03T05:50:20;97.03;;;39.53;;
20393;SDS011;10356;50.544;9.642;2023-03-03T05:52:47;102.23;;;42.57;;
20393;SDS011;10356;50.544;9.642;2023-03-03T05:55:14;98.23;;;40.63;;
20393;SDS011;10356;50.544;9.642;2023-03-03T05:57:41;89.97;;;37.93;;
20393;SDS011;10356;50.544;9.642;2023-03-03T06:00:08;86.27;;;37.67;;
20393;SDS011;10356;50.544;9.642;2023-03-03T06:02:36;92.30;;;37.90;;
20393;SDS011;10356;50.544;9.642;2023-03-03T06:05:05;99.50;;;40.90;;
20393;SDS011;10356;50.544;9.642;2023-03-03T06:07:32;97.93;;;39.83;;
20393;SDS011;10356;50.544;9.642;2023-03-03T06:09:59;93.03;;;37.73;;
20393;SDS011;10356;50.544;9.642;2023-03-03T06:12:26;95.43;;;37.43;;
20393;SDS011;10356;50.544;9.642;2023-03-03T06:14:52;98.23;;;38.87;;
20393;SDS011;10356;50.544;9.642;2023-03-03T06:17:19;102.27;;;40.87;;
20393;SDS011;10356;50.544;9.642;2023-03-03T06:19:46;94.73;;;38.93;;
20393;SDS011;10356;50.544;9.642;2023-03-03T06:22:14;95.37;;;37.27;;
20393;SDS011;10356;50.544;9.642;2023-03-03T06:24:40;89.93;;;35.80;;
20393;SDS011;10356;50.544;9.642;2023-03-03T06:27:08;92.07;;;36.30;;
20393;SDS011;10356;50.544;9.642;2023-03-03T06:29:35;96.37;;;37.57;;
20393;SDS011;10356;50.544;9.642;2023-03-03T06:32:01;92.43;;;37.13;;
20393;SDS011;10356;50.544;9.642;2023-03-03T06:34:28;114.83;;;44.83;;
20393;SDS011;10356;50.544;9.642;2023-03-03T06:36:55;97.77;;;37.50;;
20393;SDS011;10356;50.544;9.642;2023-03-03T06:39:23;95.03;;;38.73;;
20393;SDS011;10356;50.544;9.642;2023-03-03T06:41:50;93.77;;;36.73;;
20393;SDS011;10356;50.544;9.642;2023-03-03T06:44:19;94.63;;;37.97;;
20393;SDS011;10356;50.544;9.642;2023-03-03T06:46:46;97.10;;;39.10;;
20393;SDS011;10356;50.544;9.642;2023-03-03T06:49:15;91.10;;;36.73;;
20393;SDS011;10356;50.544;9.642;2023-03-03T06:51:42;89.60;;;35.60;;
20393;SDS011;10356;50.544;9.642;2023-03-03T06:54:11;86.67;;;35.00;;
20393;SDS011;10356;50.544;9.642;2023-03-03T06:56:41;78.87;;;33.50;;
20393;SDS011;10356;50.544;9.642;2023-03-03T06:59:10;74.20;;;32.63;;
20393;SDS011;10356;50.544;9.642;2023-03-03T07:01:38;76.97;;;31.47;;
20393;SDS011;10356;50.544;9.642;2023-03-03T07:04:16;76.93;;;33.20;;
20393;SDS011;10356;50.544;9.642;2023-03-03T07:06:52;75.87;;;31.47;;
20393;SDS011;10356;50.544;9.642;2023-03-03T07:09:20;75.63;;;31.70;;
20393;SDS011;10356;50.544;9.642;2023-03-03T07:11:50;77.83;;;30.27;;
20393;SDS011;10356;50.544;9.642;2023-03-03T07:14:18;72.23;;;29.50;;
20393;SDS011;10356;50.544;9.642;2023-03-03T07:16:45;69.80;;;30.93;;
20393;SDS011;10356;50.544;9.642;2023-03-03T07:19:19;68.43;;;29.23;;
20393;SDS011;10356;50.544;9.642;2023-03-03T07:21:51;63.23;;;28.07;;
20393;SDS011;10356;50.544;9.642;2023-03-03T07:24:21;68.07;;;29.03;;
20393;SDS011;10356;50.544;9.642;2023-03-03T07:26:54;61.13;;;27.67;;
20393;SDS011;10356;50.544;9.642;2023-03-03T07:29:25;67.43;;;27.93;;
20393;SDS011;10356;50.544;9.642;2023-03-03T07:31:52;62.80;;;26.03;;
20393;SDS011;10356;50.544;9.642;2023-03-03T07:34:22;67.43;;;26.80;;
20393;SDS011;10356;50.544;9.642;2023-03-03T07:36:52;62.87;;;26.67;;
20393;SDS011;10356;50.544;9.642;2023-03-03T07:39:24;56.00;;;23.47;;
20393;SDS011;10356;50.544;9.642;2023-03-03T07:42:00;54.33;;;24.17;;
20393;SDS011;10356;50.544;9.642;2023-03-03T07:44:39;60.83;;;24.27;;
20393;SDS011;10356;50.544;9.642;2023-03-03T07:47:14;57.13;;;23.67;;
20393;SDS011;10356;50.544;9.642;2023-03-03T07:49:45;53.07;;;24.20;;
20393;SDS011;10356;50.544;9.642;2023-03-03T07:52:22;74.33;;;40.63;;
20393;SDS011;10356;50.544;9.642;2023-03-03T07:54:55;64.93;;;32.17;;
20393;SDS011;10356;50.544;9.642;2023-03-03T07:57:25;195.57;;;74.57;;
20393;SDS011;10356;50.544;9.642;2023-03-03T07:59:53;127.93;;;64.20;;
20393;SDS011;10356;50.544;9.642;2023-03-03T08:02:32;55.53;;;26.97;;
20393;SDS011;10356;50.544;9.642;2023-03-03T08:08:13;46.03;;;23.53;;
20393;SDS011;10356;50.544;9.642;2023-03-03T08:10:47;55.07;;;25.20;;
20393;SDS011;10356;50.544;9.642;2023-03-03T08:13:18;50.07;;;24.97;;
20393;SDS011;10356;50.544;9.642;2023-03-03T08:15:46;45.27;;;23.07;;
20393;SDS011;10356;50.544;9.642;2023-03-03T08:18:18;43.00;;;20.03;;
20393;SDS011;10356;50.544;9.642;2023-03-03T08:20:49;47.60;;;23.40;;
20393;SDS011;10356;50.544;9.642;2023-03-03T08:23:23;45.67;;;22.70;;
20393;SDS011;10356;50.544;9.642;2023-03-03T08:25:50;71.97;;;36.90;;
20393;SDS011;10356;50.544;9.642;2023-03-03T08:28:19;54.00;;;27.90;;
20393;SDS011;10356;50.544;9.642;2023-03-03T08:30:46;57.63;;;31.80;;
20393;SDS011;10356;50.544;9.642;2023-03-03T08:33:14;40.20;;;19.20;;
20393;SDS011;10356;50.544;9.642;2023-03-03T08:35:41;41.70;;;20.00;;
20393;SDS011;10356;50.544;9.642;2023-03-03T08:38:08;40.80;;;20.63;;
20393;SDS011;10356;50.544;9.642;2023-03-03T08:40:36;43.67;;;19.90;;
20393;SDS011;10356;50.544;9.642;2023-03-03T08:43:03;38.80;;;19.60;;
20393;SDS011;10356;50.544;9.642;2023-03-03T08:45:32;75.27;;;53.07;;
20393;SDS011;10356;50.544;9.642;2023-03-03T08:47:59;53.53;;;26.30;;
20393;SDS011;10356;50.544;9.642;2023-03-03T08:50:26;36.83;;;17.60;;
20393;SDS011;10356;50.544;9.642;2023-03-03T08:52:54;43.27;;;18.93;;
20393;SDS011;10356;50.544;9.642;2023-03-03T08:55:22;44.07;;;18.37;;
20393;SDS011;10356;50.544;9.642;2023-03-03T08:57:48;41.47;;;19.00;;
20393;SDS011;10356;50.544;9.642;2023-03-03T09:00:15;37.60;;;18.30;;
20393;SDS011;10356;50.544;9.642;2023-03-03T09:02:44;36.63;;;17.47;;
20393;SDS011;10356;50.544;9.642;2023-03-03T09:05:11;74.90;;;41.47;;
20393;SDS011;10356;50.544;9.642;2023-03-03T09:07:39;47.93;;;23.33;;
20393;SDS011;10356;50.544;9.642;2023-03-03T09:10:06;40.97;;;21.63;;
20393;SDS011;10356;50.544;9.642;2023-03-03T09:12:35;44.30;;;21.50;;
20393;SDS011;10356;50.544;9.642;2023-03-03T09:15:09;69.47;;;42.30;;
20393;SDS011;10356;50.544;9.642;2023-03-03T09:17:41;41.50;;;22.57;;
20393;SDS011;10356;50.544;9.642;2023-03-03T09:23:16;45.53;;;24.27;;
20393;SDS011;10356;50.544;9.642;2023-03-03T09:25:51;39.40;;;18.07;;
20393;SDS011;10356;50.544;9.642;2023-03-03T09:28:18;36.50;;;18.13;;
20393;SDS011;10356;50.544;9.642;2023-03-03T09:30:50;38.50;;;18.20;;
20393;SDS011;10356;50.544;9.642;2023-03-03T09:33:24;41.27;;;17.87;;
20393;SDS011;10356;50.544;9.642;2023-03-03T09:35:55;40.23;;;17.20;;
20393;SDS011;10356;50.544;9.642;2023-03-03T09:38:28;36.30;;;16.97;;
20393;SDS011;10356;50.544;9.642;2023-03-03T09:41:08;36.10;;;17.33;;
20393;SDS011;10356;50.544;9.642;2023-03-03T09:43:52;34.33;;;16.87;;
20393;SDS011;10356;50.544;9.642;2023-03-03T09:46:32;40.10;;;18.70;;
20393;SDS011;10356;50.544;9.642;2023-03-03T09:49:08;32.93;;;16.50;;
20393;SDS011;10356;50.544;9.642;2023-03-03T09:51:48;44.07;;;18.57;;
20393;SDS011;10356;50.544;9.642;2023-03-03T09:54:42;33.43;;;15.60;;
20393;SDS011;10356;50.544;9.642;2023-03-03T09:57:19;37.97;;;16.83;;
20393;SDS011;10356;50.544;9.642;2023-03-03T10:02:58;34.83;;;15.93;;
20393;SDS011;10356;50.544;9.642;2023-03-03T10:05:50;31.80;;;15.37;;
20393;SDS011;10356;50.544;9.642;2023-03-03T10:08:29;33.00;;;14.50;;
20393;SDS011;10356;50.544;9.642;2023-03-03T10:11:09;33.00;;;16.00;;
20393;SDS011;10356;50.544;9.642;2023-03-03T10:13:56;33.37;;;14.77;;
20393;SDS011;10356;50.544;9.642;2023-03-03T10:16:38;32.23;;;15.20;;
20393;SDS011;10356;50.544;9.642;2023-03-03T10:19:20;31.60;;;15.67;;
20393;SDS011;10356;50.544;9.642;2023-03-03T10:22:02;31.83;;;14.77;;
20393;SDS011;10356;50.544;9.642;2023-03-03T10:24:44;29.97;;;14.03;;
20393;SDS011;10356;50.544;9.642;2023-03-03T10:27:24;29.93;;;13.70;;
20393;SDS011;10356;50.544;9.642;2023-03-03T10:30:02;30.80;;;15.67;;
20393;SDS011;10356;50.544;9.642;2023-03-03T10:32:39;35.57;;;15.60;;
20393;SDS011;10356;50.544;9.642;2023-03-03T10:35:29;31.30;;;14.33;;
20393;SDS011;10356;50.544;9.642;2023-03-03T10:38:18;29.83;;;14.43;;
20393;SDS011;10356;50.544;9.642;2023-03-03T10:40:55;34.50;;;14.73;;
20393;SDS011;10356;50.544;9.642;2023-03-03T10:43:35;32.47;;;15.23;;
20393;SDS011;10356;50.544;9.642;2023-03-03T10:46:18;30.80;;;14.97;;
20393;SDS011;10356;50.544;9.642;2023-03-03T10:49:01;33.93;;;16.00;;
20393;SDS011;10356;50.544;9.642;2023-03-03T10:51:49;38.90;;;17.63;;
20393;SDS011;10356;50.544;9.642;2023-03-03T10:54:29;37.10;;;17.40;;
20393;SDS011;10356;50.544;9.642;2023-03-03T10:57:12;25.93;;;13.60;;
20393;SDS011;10356;50.544;9.642;2023-03-03T10:59:50;31.53;;;14.93;;
20393;SDS011;10356;50.544;9.642;2023-03-03T11:02:27;31.33;;;14.03;;
20393;SDS011;10356;50.544;9.642;2023-03-03T11:05:05;30.17;;;14.13;;
20393;SDS011;10356;50.544;9.642;2023-03-03T11:07:48;29.97;;;13.53;;
20393;SDS011;10356;50.544;9.642;2023-03-03T11:10:27;27.50;;;13.37;;
20393;SDS011;10356;50.544;9.642;2023-03-03T11:13:07;25.83;;;12.93;;
20393;SDS011;10356;50.544;9.642;2023-03-03T11:15:44;23.47;;;13.10;;
20393;SDS011;10356;50.544;9.642;2023-03-03T11:18:28;26.57;;;12.17;;
20393;SDS011;10356;50.544;9.642;2023-03-03T11:21:06;23.77;;;12.53;;
20393;SDS011;10356;50.544;9.642;2023-03-03T11:23:44;25.57;;;12.70;;
20393;SDS011;10356;50.544;9.642;2023-03-03T11:26:21;29.60;;;13.53;;
20393;SDS011;10356;50.544;9.642;2023-03-03T11:29:05;26.53;;;12.97;;
20393;SDS011;10356;50.544;9.642;2023-03-03T11:31:42;23.60;;;11.93;;
20393;SDS011;10356;50.544;9.642;2023-03-03T11:34:17;26.13;;;12.73;;
20393;SDS011;10356;50.544;9.642;2023-03-03T11:37:04;23.03;;;12.13;;
20393;SDS011;10356;50.544;9.642;2023-03-03T11:39:33;23.33;;;11.53;;
20393;SDS011;10356;50.544;9.642;2023-03-03T11:42:03;25.07;;;12.60;;
20393;SDS011;10356;50.544;9.642;2023-03-03T11:44:39;23.83;;;11.57;;
20393;SDS011;10356;50.544;9.642;2023-03-03T11:47:12;22.03;;;11.67;;
20393;SDS011;10356;50.544;9.642;2023-03-03T11:49:47;24.30;;;11.63;;
20393;SDS011;10356;50.544;9.642;2023-03-03T11:52:23;24.83;;;13.10;;
20393;SDS011;10356;50.544;9.642;2023-03-03T11:54:59;24.03;;;11.93;;
20393;SDS011;10356;50.544;9.642;2023-03-03T11:57:30;21.17;;;10.70;;
20393;SDS011;10356;50.544;9.642;2023-03-03T12:00:14;22.10;;;11.63;;
20393;SDS011;10356;50.544;9.642;2023-03-03T12:02:52;23.20;;;12.17;;
20393;SDS011;10356;50.544;9.642;2023-03-03T12:05:30;21.20;;;11.50;;
20393;SDS011;10356;50.544;9.642;2023-03-03T12:08:06;19.23;;;10.97;;
20393;SDS011;10356;50.544;9.642;2023-03-03T12:10:43;18.83;;;10.53;;
20393;SDS011;10356;50.544;9.642;2023-03-03T12:13:19;19.63;;;10.53;;
20393;SDS011;10356;50.544;9.642;2023-03-03T12:15:53;20.00;;;10.50;;
20393;SDS011;10356;50.544;9.642;2023-03-03T12:21:33;23.53;;;14.30;;
20393;SDS011;10356;50.544;9.642;2023-03-03T12:24:13;17.50;;;9.40;;
20393;SDS011;10356;50.544;9.642;2023-03-03T12:26:56;18.90;;;11.27;;
20393;SDS011;10356;50.544;9.642;2023-03-03T12:29:34;19.73;;;11.30;;
20393;SDS011;10356;50.544;9.642;2023-03-03T12:32:14;163.53;;;77.87;;
20393;SDS011;10356;50.544;9.642;2023-03-03T12:34:50;41.50;;;29.30;;
20393;SDS011;10356;50.544;9.642;2023-03-03T12:37:22;30.10;;;17.80;;
20393;SDS011;10356;50.544;9.642;2023-03-03T12:40:05;22.60;;;14.50;;
20393;SDS011;10356;50.544;9.642;2023-03-03T12:42:40;19.00;;;10.07;;
20393;SDS011;10356;50.544;9.642;2023-03-03T12:45:21;108.00;;;59.73;;
20393;SDS011;10356;50.544;9.642;2023-03-03T12:48:00;84.80;;;48.23;;
20393;SDS011;10356;50.544;9.642;2023-03-03T12:50:35;22.80;;;14.33;;
20393;SDS011;10356;50.544;9.642;2023-03-03T12:53:16;20.53;;;9.87;;
20393;SDS011;10356;50.544;9.642;2023-03-03T12:55:51;15.40;;;9.40;;
20393;SDS011;10356;50.544;9.642;2023-03-03T12:58:22;19.53;;;13.17;;
20393;SDS011;10356;50.544;9.642;2023-03-03T13:01:00;18.47;;;9.90;;
20393;SDS011;10356;50.544;9.642;2023-03-03T13:03:39;13.73;;;8.87;;
20393;SDS011;10356;50.544;9.642;2023-03-03T13:06:16;28.20;;;18.67;;
20393;SDS011;10356;50.544;9.642;2023-03-03T13:08:54;17.13;;;10.60;;
20393;SDS011;10356;50.544;9.642;2023-03-03T13:11:35;20.37;;;11.60;;
20393;SDS011;10356;50.544;9.642;2023-03-03T13:14:16;46.97;;;25.63;;
20393;SDS011;10356;50.544;9.642;2023-03-03T13:16:57;40.87;;;22.40;;
20393;SDS011;10356;50.544;9.642;2023-03-03T13:19:37;22.90;;;13.07;;
20393;SDS011;10356;50.544;9.642;2023-03-03T13:22:11;51.63;;;28.37;;
20393;SDS011;10356;50.544;9.642;2023-03-03T13:24:44;25.87;;;14.83;;
20393;SDS011;10356;50.544;9.642;2023-03-03T13:27:24;17.43;;;10.33;;
20393;SDS011;10356;50.544;9.642;2023-03-03T13:29:58;25.93;;;13.73;;
20393;SDS011;10356;50.544;9.642;2023-03-03T13:32:28;32.07;;;15.07;;
20393;SDS011;10356;50.544;9.642;2023-03-03T13:35:04;30.47;;;15.87;;
20393;SDS011;10356;50.544;9.642;2023-03-03T13:37:34;28.57;;;13.80;;
20393;SDS011;10356;50.544;9.642;2023-03-03T13:40:05;22.87;;;11.97;;
20393;SDS011;10356;50.544;9.642;2023-03-03T13:42:42;63.90;;;32.80;;
20393;SDS011;10356;50.544;9.642;2023-03-03T13:45:16;168.30;;;70.43;;
20393;SDS011;10356;50.544;9.642;2023-03-03T13:47:47;22.07;;;11.90;;
20393;SDS011;10356;50.544;9.642;2023-03-03T13:50:26;18.60;;;10.27;;
20393;SDS011;10356;50.544;9.642;2023-03-03T13:53:02;20.73;;;10.43;;
20393;SDS011;10356;50.544;9.642;2023-03-03T13:55:56;14.63;;;8.03;;
20393;SDS011;10356;50.544;9.642;2023-03-03T13:58:31;14.47;;;8.37;;
20393;SDS011;10356;50.544;9.642;2023-03-03T14:01:06;16.40;;;9.03;;
20393;SDS011;10356;50.544;9.642;2023-03-03T14:03:50;16.63;;;9.33;;
20393;SDS011;10356;50.544;9.642;2023-03-03T14:06:26;18.07;;;9.60;;
20393;SDS011;10356;50.544;9.642;2023-03-03T14:08:59;15.63;;;9.07;;
20393;SDS011;10356;50.544;9.642;2023-03-03T14:11:37;18.90;;;9.13;;
20393;SDS011;10356;50.544;9.642;2023-03-03T14:14:13;18.23;;;9.43;;
20393;SDS011;10356;50.544;9.642;2023-03-03T14:16:49;20.23;;;9.47;;
20393;SDS011;10356;50.544;9.642;2023-03-03T14:19:19;18.60;;;9.07;;
20393;SDS011;10356;50.544;9.642;2023-03-03T14:21:54;16.73;;;9.13;;
20393;SDS011;10356;50.544;9.642;2023-03-03T14:24:30;16.37;;;9.40;;
20393;SDS011;10356;50.544;9.642;2023-03-03T14:27:00;16.43;;;9.70;;
20393;SDS011;10356;50.544;9.642;2023-03-03T14:29:46;17.50;;;9.77;;
20393;SDS011;10356;50.544;9.642;2023-03-03T14:32:19;20.37;;;10.30;;
20393;SDS011;10356;50.544;9.642;2023-03-03T14:34:55;18.27;;;11.97;;
20393;SDS011;10356;50.544;9.642;2023-03-03T14:37:25;14.70;;;8.57;;
20393;SDS011;10356;50.544;9.642;2023-03-03T14:40:03;15.10;;;8.57;;
20393;SDS011;10356;50.544;9.642;2023-03-03T14:42:45;20.50;;;10.27;;
20393;SDS011;10356;50.544;9.642;2023-03-03T14:45:21;18.30;;;9.63;;
20393;SDS011;10356;50.544;9.642;2023-03-03T14:48:05;17.37;;;9.87;;
20393;SDS011;10356;50.544;9.642;2023-03-03T14:50:36;14.43;;;8.40;;
20393;SDS011;10356;50.544;9.642;2023-03-03T14:53:09;16.67;;;9.00;;
20393;SDS011;10356;50.544;9.642;2023-03-03T14:55:40;14.87;;;8.17;;
20393;SDS011;10356;50.544;9.642;2023-03-03T14:58:23;16.57;;;8.90;;
20393;SDS011;10356;50.544;9.642;2023-03-03T15:00:58;16.33;;;8.77;;
20393;SDS011;10356;50.544;9.642;2023-03-03T15:03:33;13.10;;;7.90;;